Time;durP1;ratioP1;P1;durP2;ratioP2;P2;SDS_P1;SDS_P2;PMS_P1;PMS_P2;Temp;Humidity;BMP_temperature;BMP_pressure;BME280_temperature;BME280_humidity;BME280_pressure;Samples;Min_cycle;Max_cycle;Signal;HPM_P1;HPM_P2
2021/03/23 00:02:53;;;;;;;3.93;2.50;;;0.20;99.90;;;;;;6138414;28;20231;-76
2021/03/23 00:05:57;;;;;;;3.53;2.60;;;0.20;99.90;;;;;;6140079;28;20229;-77
2021/03/23 00:09:01;;;;;;;5.30;2.27;;;0.10;99.90;;;;;;6140125;28;20642;-77
2021/03/23 00:12:03;;;;;;;6.43;2.70;;;0.10;99.90;;;;;;6138813;28;20225;-77
2021/03/23 00:15:08;;;;;;;4.07;2.60;;;0.10;99.90;;;;;;6137141;28;20219;-76
2021/03/23 00:18:11;;;;;;;4.50;2.53;;;0.00;99.90;;;;;;6137505;28;20783;-77
2021/03/23 00:21:15;;;;;;;5.57;2.90;;;0.00;99.90;;;;;;6138678;28;20665;-76
2021/03/23 00:24:17;;;;;;;4.83;3.03;;;0.00;99.90;;;;;;6138106;28;20246;-77
2021/03/23 00:27:18;;;;;;;6.80;2.50;;;-0.10;99.90;;;;;;6137040;28;20218;-77
2021/03/23 00:30:20;;;;;;;4.40;2.40;;;0.00;99.90;;;;;;6137533;28;20265;-77
2021/03/23 00:33:23;;;;;;;9.47;3.00;;;-0.10;99.90;;;;;;6138622;28;20297;-77
2021/03/23 00:36:29;;;;;;;5.07;2.77;;;-0.10;99.90;;;;;;6138321;28;20643;-77
2021/03/23 00:39:31;;;;;;;4.53;2.67;;;-0.10;99.90;;;;;;6150937;28;20233;-76
2021/03/23 00:42:35;;;;;;;6.37;3.13;;;-0.10;99.90;;;;;;6185445;28;20225;-76
2021/03/23 00:45:39;;;;;;;5.93;2.97;;;-0.10;99.90;;;;;;6153562;28;20233;-77
2021/03/23 00:48:41;;;;;;;7.57;3.17;;;-0.10;99.90;;;;;;6167833;28;20244;-77
2021/03/23 00:51:44;;;;;;;4.53;3.03;;;-0.10;99.90;;;;;;6185456;28;20729;-76
2021/03/23 00:54:46;;;;;;;7.57;3.20;;;-0.10;99.90;;;;;;6184991;28;20335;-77
2021/03/23 00:57:47;;;;;;;3.97;2.93;;;-0.10;99.90;;;;;;6184890;28;20572;-76
2021/03/23 01:00:49;;;;;;;4.77;2.93;;;-0.10;99.90;;;;;;6168435;28;20225;-77
2021/03/23 01:03:51;;;;;;;5.43;3.40;;;0.00;99.90;;;;;;6184583;28;20603;-76
2021/03/23 01:06:53;;;;;;;5.50;3.50;;;0.00;99.90;;;;;;6167706;28;20609;-77
2021/03/23 01:09:55;;;;;;;8.47;3.50;;;0.00;99.90;;;;;;6167219;28;20287;-77
2021/03/23 01:12:57;;;;;;;6.83;3.33;;;0.10;99.90;;;;;;6167405;28;20604;-77
2021/03/23 01:15:59;;;;;;;11.23;4.20;;;0.10;99.90;;;;;;6184643;28;20229;-77
2021/03/23 01:19:02;;;;;;;8.00;4.13;;;0.20;99.90;;;;;;6185538;28;20233;-77
2021/03/23 01:22:04;;;;;;;5.03;3.70;;;0.30;99.90;;;;;;6166943;28;20241;-76
2021/03/23 01:25:09;;;;;;;10.07;4.70;;;0.40;99.90;;;;;;6167516;28;20328;-77
2021/03/23 01:28:11;;;;;;;9.23;4.90;;;0.50;99.90;;;;;;6185395;28;20233;-77
2021/03/23 01:31:12;;;;;;;10.10;4.33;;;0.60;99.90;;;;;;6166985;28;20324;-76
2021/03/23 01:34:14;;;;;;;8.27;4.00;;;0.60;99.90;;;;;;6185555;28;20714;-77
2021/03/23 01:37:17;;;;;;;7.13;4.13;;;0.70;99.90;;;;;;6166980;28;20706;-77
2021/03/23 01:40:23;;;;;;;10.23;4.80;;;0.70;99.90;;;;;;6183801;28;20253;-76
2021/03/23 01:43:29;;;;;;;12.00;4.73;;;0.80;99.90;;;;;;6166087;28;20699;-77
2021/03/23 01:46:39;;;;;;;9.70;4.60;;;0.90;99.90;;;;;;6167566;28;20695;-76
2021/03/23 01:49:46;;;;;;;6.50;4.10;;;0.90;99.90;;;;;;6165819;28;20226;-76
2021/03/23 01:52:55;;;;;;;9.50;4.53;;;0.90;99.90;;;;;;6184547;28;20229;-77
2021/03/23 01:55:57;;;;;;;9.37;5.20;;;0.90;99.90;;;;;;6183552;28;20725;-77
2021/03/23 01:59:02;;;;;;;8.97;5.50;;;0.90;99.90;;;;;;6166326;28;20221;-77
2021/03/23 02:02:04;;;;;;;8.17;5.60;;;0.90;99.90;;;;;;6165809;28;20345;-76
2021/03/23 02:05:12;;;;;;;9.17;5.67;;;0.90;99.90;;;;;;6165400;28;20237;-76
2021/03/23 02:08:13;;;;;;;16.37;8.33;;;1.10;99.90;;;;;;6166588;28;20240;-77
2021/03/23 02:11:15;;;;;;;9.83;5.70;;;1.20;99.90;;;;;;6183666;28;20224;-77
2021/03/23 02:14:20;;;;;;;9.30;6.37;;;1.30;99.90;;;;;;6182849;28;20757;-77
2021/03/23 02:17:32;;;;;;;13.60;6.67;;;1.40;99.90;;;;;;6151195;28;20229;-77
2021/03/23 02:20:36;;;;;;;9.30;5.83;;;1.40;99.90;;;;;;6182345;28;20229;-77
2021/03/23 02:23:42;;;;;;;14.80;7.30;;;1.40;99.90;;;;;;6183841;28;20229;-77
2021/03/23 02:26:44;;;;;;;11.67;6.03;;;1.40;99.90;;;;;;6166327;28;20217;-77
2021/03/23 02:29:47;;;;;;;12.83;6.27;;;1.30;99.90;;;;;;6167366;28;20252;-77
2021/03/23 02:32:49;;;;;;;9.67;6.20;;;1.30;99.90;;;;;;6182774;28;20308;-77
2021/03/23 02:36:03;;;;;;;10.67;6.50;;;1.40;99.90;;;;;;6151062;28;20209;-76
2021/03/23 02:39:08;;;;;;;17.03;7.17;;;1.40;99.90;;;;;;6171097;28;20662;-77
2021/03/23 02:42:11;;;;;;;18.43;7.23;;;1.40;99.90;;;;;;6183363;28;20209;-77
2021/03/23 02:45:13;;;;;;;15.00;7.40;;;1.40;99.90;;;;;;6182997;28;20695;-77
2021/03/23 02:48:15;;;;;;;14.00;6.87;;;1.40;99.90;;;;;;6182564;28;20295;-77
2021/03/23 02:51:19;;;;;;;11.40;6.20;;;1.30;99.90;;;;;;6183632;28;20232;-77
2021/03/23 02:54:20;;;;;;;12.93;8.40;;;1.30;99.90;;;;;;6182933;28;20250;-77
2021/03/23 02:57:22;;;;;;;13.83;6.80;;;1.30;99.90;;;;;;6165601;28;20228;-77
2021/03/23 03:00:24;;;;;;;17.00;7.90;;;1.30;99.90;;;;;;6163758;28;20236;-76
2021/03/23 03:03:26;;;;;;;13.87;7.10;;;1.30;99.90;;;;;;6164960;28;20744;-77
2021/03/23 03:06:28;;;;;;;17.77;8.03;;;1.30;99.90;;;;;;6182778;28;20216;-77
2021/03/23 03:09:30;;;;;;;16.27;8.10;;;1.30;99.90;;;;;;6182646;28;20228;-77
2021/03/23 03:12:32;;;;;;;15.00;7.13;;;1.40;99.90;;;;;;6182392;28;20236;-77
2021/03/23 03:15:35;;;;;;;13.43;7.50;;;1.40;99.90;;;;;;6164663;28;20300;-77
2021/03/23 03:18:37;;;;;;;16.77;7.73;;;1.50;99.90;;;;;;6165247;28;20217;-77
2021/03/23 03:21:39;;;;;;;15.37;7.63;;;1.40;99.90;;;;;;6166283;28;20646;-77
2021/03/23 03:24:41;;;;;;;16.17;8.33;;;1.40;99.90;;;;;;6164233;28;20702;-77
2021/03/23 03:27:43;;;;;;;15.80;7.67;;;1.40;99.90;;;;;;6182044;28;20351;-76
2021/03/23 03:30:45;;;;;;;16.60;8.50;;;1.50;99.90;;;;;;6165760;28;20713;-77
2021/03/23 03:33:47;;;;;;;17.77;8.73;;;1.50;99.90;;;;;;6165477;28;20307;-77
2021/03/23 03:36:50;;;;;;;20.17;9.00;;;1.50;99.90;;;;;;6165238;28;20228;-77
2021/03/23 03:39:52;;;;;;;16.60;7.77;;;1.60;99.90;;;;;;6181943;28;20241;-77
2021/03/23 03:42:55;;;;;;;16.80;7.97;;;1.60;99.90;;;;;;6165404;28;20692;-77
2021/03/23 03:45:56;;;;;;;14.17;7.63;;;1.60;99.90;;;;;;6165403;28;20235;-77
2021/03/23 03:48:58;;;;;;;11.53;7.10;;;1.60;99.90;;;;;;6181956;28;20221;-77
2021/03/23 03:52:00;;;;;;;19.57;7.60;;;1.60;99.90;;;;;;6165246;28;20725;-77
2021/03/23 03:55:03;;;;;;;14.87;7.60;;;1.50;99.90;;;;;;6166441;28;20229;-76
2021/03/23 03:58:05;;;;;;;16.70;8.40;;;1.50;99.90;;;;;;6166842;28;20237;-77
2021/03/23 04:01:07;;;;;;;21.90;9.20;;;1.50;99.90;;;;;;6165139;28;20300;-77
2021/03/23 04:04:09;;;;;;;14.83;7.93;;;1.60;99.90;;;;;;6164027;28;20601;-77
2021/03/23 04:07:14;;;;;;;15.03;6.80;;;1.60;99.90;;;;;;6182373;28;20225;-77
2021/03/23 04:10:19;;;;;;;18.30;7.60;;;1.60;99.90;;;;;;6164111;28;20232;-77
2021/03/23 04:13:21;;;;;;;17.73;8.27;;;1.70;99.90;;;;;;6166700;28;20312;-77
2021/03/23 04:16:23;;;;;;;16.87;7.30;;;1.70;99.90;;;;;;6168643;28;20367;-77
2021/03/23 04:19:25;;;;;;;17.33;7.73;;;1.70;99.90;;;;;;6169707;28;20251;-77
2021/03/23 04:22:27;;;;;;;15.83;7.90;;;1.70;99.90;;;;;;6186401;28;20320;-77
2021/03/23 04:25:31;;;;;;;14.30;8.20;;;1.70;99.90;;;;;;6168697;28;20765;-76
2021/03/23 04:28:33;;;;;;;14.90;8.30;;;1.70;99.90;;;;;;6186786;28;20590;-77
2021/03/23 04:31:44;;;;;;;14.70;8.27;;;1.70;99.90;;;;;;6185638;28;20232;-77
2021/03/23 04:34:46;;;;;;;12.43;7.13;;;1.70;99.90;;;;;;6186212;28;20229;-77
2021/03/23 04:37:48;;;;;;;17.87;8.67;;;1.60;99.90;;;;;;6171023;28;20229;-77
2021/03/23 04:40:51;;;;;;;14.23;8.03;;;1.60;99.90;;;;;;6144099;28;20244;-77
2021/03/23 04:43:53;;;;;;;17.03;8.67;;;1.60;99.90;;;;;;6143811;28;20233;-77
2021/03/23 04:46:55;;;;;;;13.83;7.73;;;1.70;99.90;;;;;;6143982;28;20255;-77
2021/03/23 04:49:57;;;;;;;17.47;8.27;;;1.80;99.90;;;;;;6144289;28;20263;-77
2021/03/23 04:52:59;;;;;;;14.47;7.30;;;1.90;99.90;;;;;;6160780;28;20226;-77
2021/03/23 04:56:03;;;;;;;14.90;7.37;;;1.90;99.90;;;;;;6159878;28;20699;-77
2021/03/23 04:59:06;;;;;;;14.60;7.53;;;1.90;99.90;;;;;;6161651;28;20230;-77
2021/03/23 05:02:08;;;;;;;15.70;7.80;;;1.90;99.90;;;;;;6164957;28;20316;-77
2021/03/23 05:05:10;;;;;;;15.73;8.27;;;1.90;99.90;;;;;;6168188;28;20287;-77
2021/03/23 05:08:12;;;;;;;17.27;8.30;;;2.00;99.90;;;;;;6184841;28;20320;-77
2021/03/23 05:11:17;;;;;;;23.63;9.33;;;2.00;99.90;;;;;;6184322;28;20235;-77
2021/03/23 05:14:19;;;;;;;17.93;8.37;;;2.00;99.90;;;;;;6184312;28;20729;-77
2021/03/23 05:17:21;;;;;;;13.07;7.40;;;2.10;99.90;;;;;;6167073;28;20233;-77
2021/03/23 05:20:25;;;;;;;20.67;9.13;;;2.10;99.90;;;;;;6186043;28;20271;-77
2021/03/23 05:23:27;;;;;;;16.33;7.60;;;2.10;99.90;;;;;;6182893;28;20233;-77
2021/03/23 05:26:30;;;;;;;16.30;8.13;;;2.10;99.90;;;;;;6167256;28;20311;-77
2021/03/23 05:29:32;;;;;;;19.30;8.90;;;2.20;99.90;;;;;;6167777;28;20379;-76
2021/03/23 05:32:34;;;;;;;16.80;8.23;;;2.30;99.90;;;;;;6184297;28;20225;-77
2021/03/23 05:35:36;;;;;;;14.57;7.70;;;2.30;99.90;;;;;;6185089;28;20245;-76
2021/03/23 05:38:38;;;;;;;16.10;8.67;;;2.30;99.90;;;;;;6185203;28;20231;-76
2021/03/23 05:41:52;;;;;;;15.67;8.27;;;2.30;99.90;;;;;;6183805;28;20229;-77
2021/03/23 05:45:03;;;;;;;17.97;8.27;;;2.30;99.90;;;;;;6184106;28;20240;-77
2021/03/23 05:48:22;;;;;;;19.53;8.83;;;2.30;99.90;;;;;;6183665;28;20232;-77
2021/03/23 05:51:38;;;;;;;15.13;7.30;;;2.40;99.90;;;;;;6185112;28;20309;-77
2021/03/23 05:54:51;;;;;;;18.60;8.53;;;2.50;99.90;;;;;;6184070;28;20241;-77
2021/03/23 05:57:54;;;;;;;15.53;8.67;;;2.50;99.90;;;;;;6167446;28;20229;-76
2021/03/23 06:01:08;;;;;;;16.60;7.90;;;2.60;99.90;;;;;;6184223;28;20287;-76
2021/03/23 06:04:27;;;;;;;16.13;7.80;;;2.60;99.90;;;;;;6183468;28;20243;-77
2021/03/23 06:07:35;;;;;;;14.77;8.13;;;2.60;99.90;;;;;;6166446;28;20324;-77
2021/03/23 06:10:37;;;;;;;18.57;8.00;;;2.70;99.90;;;;;;6166424;28;20265;-77
2021/03/23 06:13:53;;;;;;;13.47;7.13;;;2.70;99.90;;;;;;6183940;28;20272;-77
2021/03/23 06:17:30;;;;;;;14.20;7.77;;;2.70;99.90;;;;;;6183828;28;20233;-77
2021/03/23 06:20:37;;;;;;;16.63;8.03;;;2.80;99.90;;;;;;6182774;28;20774;-77
2021/03/23 06:24:00;;;;;;;16.33;8.33;;;2.90;99.90;;;;;;6166351;28;20229;-77
2021/03/23 06:27:14;;;;;;;19.00;8.73;;;3.00;99.90;;;;;;6165578;28;20222;-77
2021/03/23 06:30:57;;;;;;;13.77;8.57;;;3.10;99.90;;;;;;6166438;28;20292;-77
2021/03/23 06:33:59;;;;;;;16.00;8.00;;;3.20;99.90;;;;;;6092885;29;20242;-77
2021/03/23 06:37:21;;;;;;;16.40;7.70;;;3.40;99.90;;;;;;6116275;29;20257;-77
2021/03/23 06:40:27;;;;;;;18.37;7.77;;;3.50;99.90;;;;;;6133577;29;20280;-77
2021/03/23 06:43:30;;;;;;;16.60;7.87;;;3.60;99.90;;;;;;6131529;28;20321;-77
2021/03/23 06:46:31;;;;;;;14.23;7.50;;;3.70;99.90;;;;;;6133294;29;20231;-77
2021/03/23 06:49:39;;;;;;;15.40;7.37;;;3.80;99.90;;;;;;6136792;29;20337;-77
2021/03/23 06:52:41;;;;;;;15.27;7.23;;;3.80;99.90;;;;;;6132124;29;20234;-77
2021/03/23 06:55:47;;;;;;;17.93;8.60;;;3.90;99.90;;;;;;6131948;28;20753;-77
2021/03/23 06:59:26;;;;;;;15.63;7.53;;;4.00;99.90;;;;;;6131878;29;20602;-77
2021/03/23 07:02:30;;;;;;;19.60;7.53;;;4.00;99.90;;;;;;6126279;28;20237;-77
2021/03/23 07:05:39;;;;;;;25.70;9.30;;;4.10;99.90;;;;;;6108089;29;20239;-77
2021/03/23 07:08:40;;;;;;;14.07;7.60;;;4.20;99.90;;;;;;6150650;28;20230;-77
2021/03/23 07:12:08;;;;;;;12.23;6.60;;;4.30;99.90;;;;;;6158055;28;20234;-77
2021/03/23 07:15:30;;;;;;;10.47;6.63;;;4.30;99.90;;;;;;6139051;28;20265;-77
2021/03/23 07:18:46;;;;;;;15.70;7.70;;;4.40;99.90;;;;;;6141902;28;20222;-77
2021/03/23 07:21:57;;;;;;;13.73;6.93;;;4.40;99.90;;;;;;6142319;28;20572;-77
2021/03/23 07:25:01;;;;;;;16.07;8.27;;;4.40;99.90;;;;;;6158874;28;20353;-77
2021/03/23 07:28:32;;;;;;;11.90;7.27;;;4.40;99.90;;;;;;6158451;28;20227;-77
2021/03/23 07:31:42;;;;;;;16.73;7.07;;;4.50;99.90;;;;;;6141877;28;20234;-77
2021/03/23 07:34:57;;;;;;;18.37;8.60;;;4.60;99.90;;;;;;6165488;28;20297;-77
2021/03/23 07:38:14;;;;;;;11.37;7.07;;;4.70;99.90;;;;;;6182070;28;20233;-77
2021/03/23 07:41:26;;;;;;;11.33;6.37;;;4.80;99.90;;;;;;6181621;28;20850;-77
2021/03/23 07:44:42;;;;;;;13.47;7.67;;;5.10;99.90;;;;;;6164476;28;20252;-77
2021/03/23 07:47:59;;;;;;;15.13;7.10;;;5.30;99.90;;;;;;6184237;28;20236;-77
2021/03/23 07:51:16;;;;;;;11.10;6.70;;;5.50;99.90;;;;;;6169286;28;20253;-77
2021/03/23 07:54:34;;;;;;;12.90;6.80;;;5.60;99.90;;;;;;6169638;28;20706;-78
2021/03/23 07:58:04;;;;;;;13.03;6.50;;;5.70;99.90;;;;;;6168876;28;20231;-77
2021/03/23 08:01:09;;;;;;;13.27;6.70;;;5.80;99.90;;;;;;6147645;28;20362;-77
2021/03/23 08:04:37;;;;;;;14.77;6.67;;;5.70;99.90;;;;;;6169184;28;20236;-77
2021/03/23 08:07:50;;;;;;;11.67;6.70;;;5.70;99.90;;;;;;6159372;28;20242;-77
2021/03/23 08:11:04;;;;;;;12.13;6.10;;;5.80;99.90;;;;;;6186623;28;20234;-77
2021/03/23 08:14:27;;;;;;;11.97;6.60;;;5.80;99.90;;;;;;6184365;28;20242;-77
2021/03/23 08:17:33;;;;;;;11.90;6.53;;;5.80;99.90;;;;;;6186951;28;20237;-77
2021/03/23 08:20:53;;;;;;;15.80;6.87;;;5.80;99.90;;;;;;6186495;28;20237;-77
2021/03/23 08:24:03;;;;;;;11.93;6.27;;;5.80;99.90;;;;;;6186404;28;20225;-77
2021/03/23 08:27:29;;;;;;;12.90;6.67;;;5.90;99.90;;;;;;6185125;28;20366;-77
2021/03/23 08:31:07;;;;;;;12.70;6.37;;;5.90;99.90;;;;;;6167399;28;20355;-77
2021/03/23 08:34:15;;;;;;;10.10;6.40;;;5.90;99.90;;;;;;6169300;28;20233;-77
2021/03/23 08:38:00;;;;;;;8.77;5.57;;;6.00;99.90;;;;;;6168625;28;20617;-77
2021/03/23 08:41:04;;;;;;;11.33;6.77;;;6.10;99.90;;;;;;6053654;29;20250;-77
2021/03/23 08:44:36;;;;;;;14.33;7.30;;;6.20;99.90;;;;;;6129729;28;20267;-77
2021/03/23 08:47:48;;;;;;;13.30;6.90;;;6.20;99.90;;;;;;6121278;28;20237;-77
2021/03/23 08:50:57;;;;;;;11.63;5.93;;;6.00;99.90;;;;;;6136900;28;20237;-77
2021/03/23 08:54:01;;;;;;;12.30;5.87;;;6.10;99.90;;;;;;6139391;28;20232;-77
2021/03/23 08:57:04;;;;;;;12.93;6.90;;;6.20;99.90;;;;;;6097343;28;20237;-77
2021/03/23 09:00:06;;;;;;;17.13;6.40;;;6.30;99.90;;;;;;6114371;28;20219;-77
2021/03/23 09:03:10;;;;;;;12.97;5.37;;;6.40;99.90;;;;;;6113959;28;20588;-78
2021/03/23 09:06:36;;;;;;;15.97;7.13;;;6.40;99.90;;;;;;6115150;28;20381;-77
2021/03/23 09:09:44;;;;;;;13.50;6.30;;;6.50;99.90;;;;;;6110338;28;20245;-77
2021/03/23 09:12:48;;;;;;;11.40;6.10;;;6.60;99.90;;;;;;6113270;28;20241;-77
2021/03/23 09:15:52;;;;;;;13.30;6.73;;;6.80;99.90;;;;;;6113398;28;20336;-77
2021/03/23 09:19:01;;;;;;;9.70;5.23;;;7.00;99.90;;;;;;6113505;28;20500;-77
2021/03/23 09:22:03;;;;;;;12.37;5.93;;;7.10;99.90;;;;;;6120391;28;20238;-77
2021/03/23 09:25:48;;;;;;;10.53;6.27;;;7.30;99.90;;;;;;6111775;29;20242;-77
2021/03/23 09:28:52;;;;;;;11.70;6.10;;;7.60;99.90;;;;;;6128288;28;20256;-77
2021/03/23 09:31:53;;;;;;;15.47;7.23;;;7.70;99.90;;;;;;6138774;28;20229;-78
2021/03/23 09:35:02;;;;;;;12.37;5.93;;;7.70;99.90;;;;;;6136821;28;20625;-77
2021/03/23 09:38:34;;;;;;;11.63;6.00;;;7.80;99.70;;;;;;6137548;28;20234;-77
2021/03/23 09:41:37;;;;;;;12.47;7.40;;;8.10;99.90;;;;;;6162286;28;20245;-78
2021/03/23 09:44:46;;;;;;;11.27;6.17;;;8.50;99.80;;;;;;6161506;28;20248;-78
2021/03/23 09:47:59;;;;;;;12.53;7.33;;;8.80;99.90;;;;;;6144147;28;20240;-77
2021/03/23 09:51:11;;;;;;;13.90;6.77;;;9.00;95.60;;;;;;6160090;28;20695;-77
2021/03/23 09:54:16;;;;;;;11.87;6.57;;;9.00;93.90;;;;;;6162008;28;20215;-77
2021/03/23 09:57:22;;;;;;;11.93;6.40;;;9.20;95.20;;;;;;6188668;28;20203;-77
2021/03/23 10:00:43;;;;;;;12.43;7.47;;;9.40;94.70;;;;;;6179807;28;20571;-77
2021/03/23 10:03:48;;;;;;;13.73;7.00;;;9.40;91.20;;;;;;6161152;28;20241;-78
2021/03/23 10:06:50;;;;;;;12.73;7.03;;;9.50;93.90;;;;;;6144384;28;20318;-78
2021/03/23 10:09:52;;;;;;;12.50;6.60;;;9.60;92.90;;;;;;6163244;28;20313;-78
2021/03/23 10:12:59;;;;;;;12.43;6.50;;;9.90;92.30;;;;;;6144992;28;20719;-78
2021/03/23 10:16:08;;;;;;;15.03;6.80;;;10.20;90.10;;;;;;6144755;28;20305;-77
2021/03/23 10:19:20;;;;;;;13.47;7.10;;;10.30;90.80;;;;;;6144455;28;20228;-78
2021/03/23 10:22:38;;;;;;;19.43;7.43;;;10.30;88.90;;;;;;6147886;28;20243;-78
2021/03/23 10:25:43;;;;;;;14.53;6.67;;;10.50;88.10;;;;;;6161621;28;20243;-78
2021/03/23 10:28:48;;;;;;;14.10;7.33;;;10.70;83.20;;;;;;6160836;28;20277;-78
2021/03/23 10:31:56;;;;;;;13.17;7.00;;;10.40;80.80;;;;;;6128037;28;20322;-78
2021/03/23 10:35:12;;;;;;;11.23;6.67;;;10.00;84.00;;;;;;6144474;28;20292;-78
2021/03/23 10:38:18;;;;;;;13.67;6.77;;;9.70;83.40;;;;;;6143508;28;20224;-78
2021/03/23 10:41:20;;;;;;;11.23;6.60;;;9.30;85.30;;;;;;6138747;28;20303;-77
2021/03/23 10:44:27;;;;;;;15.77;7.10;;;8.90;87.00;;;;;;6153588;28;20773;-77
2021/03/23 10:47:32;;;;;;;10.27;6.00;;;8.60;90.20;;;;;;6156107;28;20294;-77
2021/03/23 10:50:36;;;;;;;12.73;6.70;;;8.40;91.10;;;;;;6158708;28;20235;-77
2021/03/23 10:53:38;;;;;;;10.73;6.17;;;8.30;92.00;;;;;;6143687;28;20222;-77
2021/03/23 10:56:49;;;;;;;12.33;6.50;;;8.30;92.90;;;;;;6161147;28;20233;-77
2021/03/23 10:59:51;;;;;;;12.40;6.13;;;8.20;93.10;;;;;;6144747;28;20603;-77
2021/03/23 11:02:53;;;;;;;14.43;7.00;;;8.10;95.20;;;;;;6165322;28;20239;-77
2021/03/23 11:05:56;;;;;;;11.27;6.23;;;8.00;94.90;;;;;;6188216;28;20336;-77
2021/03/23 11:08:58;;;;;;;13.33;7.07;;;7.90;94.90;;;;;;6161742;28;20575;-77
2021/03/23 11:11:59;;;;;;;15.83;6.50;;;7.70;96.30;;;;;;6148425;28;20240;-77
2021/03/23 11:15:03;;;;;;;12.70;6.50;;;7.70;97.10;;;;;;6187874;28;20233;-76
2021/03/23 11:18:19;;;;;;;9.53;5.93;;;7.80;97.40;;;;;;6166720;28;20206;-77
2021/03/23 11:21:21;;;;;;;11.90;6.93;;;7.70;97.30;;;;;;6161010;28;20294;-77
2021/03/23 11:24:23;;;;;;;12.07;6.37;;;7.60;97.50;;;;;;6165455;28;20648;-78
2021/03/23 11:27:29;;;;;;;11.97;6.47;;;7.40;98.60;;;;;;6165659;28;20245;-77
2021/03/23 11:30:31;;;;;;;14.83;6.47;;;7.30;99.40;;;;;;6163414;28;20360;-77
2021/03/23 11:33:33;;;;;;;14.90;6.33;;;7.30;99.90;;;;;;6163436;28;20339;-77
2021/03/23 11:36:35;;;;;;;12.87;5.87;;;7.40;99.60;;;;;;6144636;28;20349;-77
2021/03/23 11:39:37;;;;;;;9.23;5.83;;;7.50;99.90;;;;;;6150010;28;20319;-77
2021/03/23 11:42:52;;;;;;;10.70;6.53;;;7.70;99.60;;;;;;6187686;28;20606;-77
2021/03/23 11:46:22;;;;;;;9.33;6.53;;;7.60;99.90;;;;;;6171213;28;20275;-77
2021/03/23 11:49:44;;;;;;;9.13;6.60;;;7.50;99.90;;;;;;6186004;28;20237;-77
2021/03/23 11:52:48;;;;;;;11.63;7.37;;;7.30;99.90;;;;;;6169491;28;20229;-77
2021/03/23 11:55:50;;;;;;;12.97;6.80;;;7.10;99.90;;;;;;6169207;28;20320;-77
2021/03/23 11:58:51;;;;;;;15.33;7.63;;;6.90;99.90;;;;;;6168914;28;20227;-77
2021/03/23 12:01:54;;;;;;;14.10;8.43;;;6.90;99.90;;;;;;6185431;28;20241;-77
2021/03/23 12:04:57;;;;;;;12.97;6.93;;;6.80;99.90;;;;;;6168530;28;20319;-77
2021/03/23 12:08:17;;;;;;;12.50;7.50;;;6.80;99.90;;;;;;6186456;28;20725;-77
2021/03/23 12:11:33;;;;;;;13.83;7.93;;;6.80;99.90;;;;;;6145611;28;20230;-77
2021/03/23 12:14:53;;;;;;;12.73;8.00;;;6.70;99.90;;;;;;6182565;28;20323;-77
2021/03/23 12:17:55;;;;;;;10.63;7.60;;;6.60;99.90;;;;;;6163903;28;20226;-77
2021/03/23 12:21:00;;;;;;;12.70;7.37;;;6.60;99.90;;;;;;6145599;28;20312;-77
2021/03/23 12:24:03;;;;;;;11.17;7.43;;;6.50;99.90;;;;;;6159773;28;20218;-77
2021/03/23 12:27:06;;;;;;;12.13;6.67;;;6.40;99.90;;;;;;6163115;28;20627;-77
2021/03/23 12:30:09;;;;;;;10.93;7.40;;;6.40;99.90;;;;;;6162050;28;20568;-77
2021/03/23 12:33:11;;;;;;;12.03;7.67;;;6.30;99.90;;;;;;6161511;28;20266;-77
2021/03/23 12:36:15;;;;;;;12.30;7.27;;;6.30;99.90;;;;;;6161832;28;20210;-77
2021/03/23 12:39:18;;;;;;;12.93;7.33;;;6.30;99.90;;;;;;6161808;28;20230;-77
2021/03/23 12:42:22;;;;;;;19.13;8.57;;;6.30;99.90;;;;;;6161781;28;20233;-77
2021/03/23 12:45:35;;;;;;;13.03;7.20;;;6.20;99.90;;;;;;6161952;28;20240;-77
2021/03/23 12:48:38;;;;;;;9.63;6.53;;;6.10;99.90;;;;;;6160524;28;20320;-77
2021/03/23 12:51:52;;;;;;;11.43;7.30;;;6.10;99.90;;;;;;6161447;28;20230;-77
2021/03/23 12:54:56;;;;;;;16.33;7.33;;;6.10;99.90;;;;;;6160363;28;20620;-77
2021/03/23 12:58:02;;;;;;;10.63;6.70;;;6.20;99.90;;;;;;6159814;28;20374;-77
2021/03/23 13:01:04;;;;;;;13.23;7.27;;;6.20;99.90;;;;;;6161135;28;20229;-77
2021/03/23 13:04:10;;;;;;;11.47;7.00;;;6.20;99.90;;;;;;6160316;28;20225;-77
2021/03/23 13:07:25;;;;;;;12.20;7.27;;;6.30;99.90;;;;;;6161203;28;20660;-77
2021/03/23 13:10:29;;;;;;;12.47;7.33;;;6.30;99.90;;;;;;6160702;28;20244;-77
2021/03/23 13:13:40;;;;;;;10.43;7.47;;;6.30;99.90;;;;;;6172817;28;20221;-77
2021/03/23 13:16:41;;;;;;;11.10;7.00;;;6.30;99.90;;;;;;6166993;28;20600;-77
2021/03/23 13:19:44;;;;;;;11.03;7.50;;;6.20;99.90;;;;;;6154752;28;20233;-77
2021/03/23 13:22:53;;;;;;;11.53;7.27;;;6.10;99.90;;;;;;6174448;28;20303;-77
2021/03/23 13:26:01;;;;;;;13.30;8.20;;;6.10;99.90;;;;;;6169759;28;20230;-77
2021/03/23 13:29:08;;;;;;;9.57;6.83;;;6.10;99.90;;;;;;6143336;28;20264;-77
2021/03/23 13:32:09;;;;;;;12.03;7.00;;;6.10;99.90;;;;;;6160720;28;20324;-77
2021/03/23 13:35:12;;;;;;;16.17;7.80;;;6.00;99.90;;;;;;6160287;28;20372;-77
2021/03/23 13:38:16;;;;;;;13.50;7.50;;;6.10;99.90;;;;;;6159880;28;20300;-77
2021/03/23 13:41:18;;;;;;;12.57;7.57;;;6.10;99.90;;;;;;6181160;28;20331;-77
2021/03/23 13:44:37;;;;;;;13.00;7.70;;;6.10;99.90;;;;;;6163635;28;20757;-77
2021/03/23 13:47:41;;;;;;;12.07;7.47;;;6.10;99.90;;;;;;6160737;28;20238;-77
2021/03/23 13:50:44;;;;;;;14.63;7.63;;;6.00;99.90;;;;;;6160804;28;20573;-77
2021/03/23 13:53:46;;;;;;;18.30;7.77;;;5.90;99.90;;;;;;6160292;28;20229;-77
2021/03/23 13:56:48;;;;;;;17.07;8.20;;;5.90;99.90;;;;;;6158949;28;20237;-77
2021/03/23 13:59:50;;;;;;;13.70;7.27;;;5.80;99.90;;;;;;6159899;28;20239;-77
2021/03/23 14:02:52;;;;;;;13.23;7.90;;;5.70;99.90;;;;;;6158706;28;20747;-77
2021/03/23 14:05:56;;;;;;;15.07;8.40;;;5.70;99.90;;;;;;6167489;28;20251;-77
2021/03/23 14:08:59;;;;;;;15.40;8.27;;;5.60;99.90;;;;;;6143037;28;20230;-77
2021/03/23 14:12:03;;;;;;;13.70;8.97;;;5.50;99.90;;;;;;6159920;28;20718;-77
2021/03/23 14:15:06;;;;;;;11.30;8.03;;;5.50;99.90;;;;;;6142297;28;20232;-77
2021/03/23 14:18:11;;;;;;;15.00;8.83;;;5.50;99.90;;;;;;6182309;28;20299;-77
2021/03/23 14:21:19;;;;;;;14.97;8.50;;;5.40;99.90;;;;;;6143080;28;20291;-77
2021/03/23 14:24:23;;;;;;;12.87;7.97;;;5.40;99.90;;;;;;6159165;28;20240;-77
2021/03/23 14:27:24;;;;;;;9.73;7.50;;;5.50;99.90;;;;;;6159635;28;20264;-76
2021/03/23 14:30:30;;;;;;;14.40;8.70;;;5.40;99.90;;;;;;6142605;28;20316;-76
2021/03/23 14:33:32;;;;;;;14.33;9.13;;;5.40;99.90;;;;;;6144607;28;20697;-77
2021/03/23 14:36:39;;;;;;;13.43;9.13;;;5.40;99.90;;;;;;6121512;28;20227;-77
2021/03/23 14:39:44;;;;;;;16.80;9.23;;;5.40;99.90;;;;;;6147505;28;20362;-77
2021/03/23 14:42:46;;;;;;;13.07;8.97;;;5.40;99.90;;;;;;6165750;28;20231;-77
2021/03/23 14:45:49;;;;;;;13.27;9.37;;;5.40;99.90;;;;;;6165463;28;20240;-77
2021/03/23 14:48:51;;;;;;;13.07;8.07;;;5.40;99.90;;;;;;6165608;28;20306;-77
2021/03/23 14:51:53;;;;;;;12.23;8.13;;;5.40;99.90;;;;;;6165725;28;20716;-76
2021/03/23 14:54:58;;;;;;;14.30;8.57;;;5.50;99.90;;;;;;6182723;28;20251;-77
2021/03/23 14:58:00;;;;;;;13.17;7.70;;;5.50;99.90;;;;;;6186409;28;20320;-77
2021/03/23 15:01:02;;;;;;;14.00;8.20;;;5.60;99.90;;;;;;6184975;28;20319;-77
2021/03/23 15:04:04;;;;;;;14.47;8.90;;;5.70;99.90;;;;;;6182247;28;20259;-76
2021/03/23 15:07:30;;;;;;;15.90;7.90;;;5.80;99.90;;;;;;6164697;28;20240;-77
2021/03/23 15:10:38;;;;;;;12.07;7.00;;;5.80;99.90;;;;;;6182394;28;20235;-77
2021/03/23 15:13:40;;;;;;;13.00;7.93;;;5.90;99.90;;;;;;6181747;28;20233;-77
2021/03/23 15:16:44;;;;;;;12.70;8.37;;;5.90;99.90;;;;;;6182853;28;20236;-77
2021/03/23 15:19:46;;;;;;;11.57;7.83;;;6.00;99.90;;;;;;6165275;28;20634;-77
2021/03/23 15:22:49;;;;;;;11.13;7.33;;;6.10;99.90;;;;;;6166992;28;20236;-77
2021/03/23 15:25:50;;;;;;;13.97;8.20;;;6.10;99.90;;;;;;6182066;28;20327;-77
2021/03/23 15:28:54;;;;;;;12.00;7.10;;;6.20;99.90;;;;;;6165048;28;20323;-77
2021/03/23 15:32:03;;;;;;;15.63;8.00;;;6.20;99.90;;;;;;6183363;28;20229;-77
2021/03/23 15:35:11;;;;;;;11.37;7.80;;;6.20;99.90;;;;;;6182725;28;20235;-77
2021/03/23 15:38:27;;;;;;;10.43;6.20;;;6.20;99.90;;;;;;6165919;28;20223;-77
2021/03/23 15:41:29;;;;;;;12.30;6.90;;;6.10;99.90;;;;;;6182150;28;20320;-77
2021/03/23 15:44:33;;;;;;;9.23;6.33;;;6.10;99.90;;;;;;6164760;28;20239;-77
2021/03/23 15:47:35;;;;;;;10.00;6.77;;;6.10;99.90;;;;;;6166141;28;20741;-77
2021/03/23 15:50:38;;;;;;;10.07;6.40;;;6.00;99.90;;;;;;6164863;28;20714;-77
2021/03/23 15:53:44;;;;;;;11.60;6.87;;;5.90;99.90;;;;;;6165495;28;20235;-77
2021/03/23 15:56:47;;;;;;;14.17;6.27;;;5.80;99.90;;;;;;6182728;28;20226;-77
2021/03/23 15:59:48;;;;;;;10.07;6.40;;;5.80;99.90;;;;;;6182538;28;20741;-77
2021/03/23 16:02:52;;;;;;;9.77;6.47;;;5.80;99.90;;;;;;6182976;28;20238;-77
2021/03/23 16:05:54;;;;;;;12.60;6.90;;;5.70;99.90;;;;;;6181859;28;20321;-77
2021/03/23 16:09:04;;;;;;;10.43;6.47;;;5.60;99.90;;;;;;6184267;28;20648;-77
2021/03/23 16:12:09;;;;;;;12.13;7.07;;;5.60;99.90;;;;;;6161939;28;20388;-77
2021/03/23 16:15:33;;;;;;;11.37;6.60;;;5.50;99.90;;;;;;6184839;28;20217;-77